createdAt,value
2023-03-26T00:00:19.165Z,32.47
2023-03-26T00:02:26.363Z,30.58
2023-03-26T00:04:34.740Z,34.40
2023-03-26T00:06:42.760Z,32.30
2023-03-26T00:08:49.943Z,32.10
2023-03-26T00:10:57.068Z,33.25
2023-03-26T00:13:06.397Z,31.98
2023-03-26T00:15:14.199Z,32.97
2023-03-26T00:17:22.250Z,35.47
2023-03-26T00:19:29.224Z,36.80
2023-03-26T00:21:36.609Z,36.83
2023-03-26T00:23:43.847Z,38.92
2023-03-26T00:25:52.125Z,37.05
2023-03-26T00:27:59.544Z,37.33
2023-03-26T00:30:09.488Z,36.33
2023-03-26T00:32:16.521Z,35.40
2023-03-26T00:34:24.095Z,33.85
2023-03-26T00:36:31.079Z,32.75
2023-03-26T00:38:39.803Z,33.70
2023-03-26T00:40:49.132Z,31.30
2023-03-26T00:42:56.164Z,31.27
2023-03-26T00:45:03.399Z,32.40
2023-03-26T00:47:12.321Z,31.90
2023-03-26T00:49:19.759Z,31.30
2023-03-26T00:51:26.992Z,31.27
2023-03-26T00:53:34.429Z,33.08
2023-03-26T00:55:42.377Z,31.60
2023-03-26T00:57:49.252Z,31.90
2023-03-26T00:59:56.538Z,31.67
2023-03-26T01:02:03.497Z,30.35
2023-03-26T01:04:32.182Z,30.30
2023-03-26T01:06:44.346Z,31.90
2023-03-26T01:08:53.935Z,28.88
2023-03-26T01:11:06.233Z,30.13
2023-03-26T01:13:14.337Z,30.13
2023-03-26T01:15:21.473Z,30.25
2023-03-26T01:17:34.925Z,31.17
2023-03-26T01:19:51.296Z,29.48
2023-03-26T01:21:58.685Z,29.27
2023-03-26T01:24:09.042Z,29.17
2023-03-26T01:26:34.860Z,30.63
2023-03-26T01:28:43.929Z,28.42
2023-03-26T01:30:59.662Z,29.38
2023-03-26T01:33:15.466Z,29.25
2023-03-26T01:35:33.999Z,27.95
2023-03-26T01:37:49.473Z,26.67
2023-03-26T01:40:07.963Z,27.35
2023-03-26T01:42:18.834Z,28.48
2023-03-26T01:44:34.667Z,27.42
2023-03-26T01:46:42.338Z,27.35
2023-03-26T01:48:50.580Z,26.52
2023-03-26T01:50:59.798Z,25.90
2023-03-26T01:53:06.825Z,25.65
2023-03-26T01:55:16.669Z,24.65
2023-03-26T01:57:36.291Z,24.40
2023-03-26T02:00:12.560Z,22.85
2023-03-26T02:02:28.691Z,21.48
2023-03-26T02:04:43.202Z,21.50
2023-03-26T02:06:54.630Z,20.75
2023-03-26T02:09:04.886Z,19.83
2023-03-26T02:11:16.624Z,19.42
2023-03-26T02:13:24.530Z,19.60
2023-03-26T02:15:31.858Z,19.70
2023-03-26T02:17:41.272Z,19.45
2023-03-26T02:19:49.034Z,22.05
2023-03-26T02:22:00.722Z,25.15
2023-03-26T02:24:11.440Z,24.00
2023-03-26T02:26:22.378Z,24.05
2023-03-26T02:28:38.548Z,22.23
2023-03-26T02:30:46.961Z,19.73
2023-03-26T02:32:56.333Z,18.85
2023-03-26T02:35:03.538Z,19.83
2023-03-26T02:37:11.612Z,21.20
2023-03-26T02:39:21.930Z,17.73
2023-03-26T02:41:40.581Z,18.20
2023-03-26T02:43:51.909Z,17.95
2023-03-26T02:46:02.410Z,18.80
2023-03-26T02:48:37.452Z,17.70
2023-03-26T02:50:59.946Z,18.65
2023-03-26T02:53:33.389Z,18.48
2023-03-26T02:56:01.155Z,17.15
2023-03-26T02:58:18.690Z,18.30
2023-03-26T03:00:26.882Z,18.73
2023-03-26T03:02:34.060Z,17.55
2023-03-26T03:05:02.702Z,17.77
2023-03-26T03:07:15.467Z,16.92
2023-03-26T03:09:23.313Z,17.63
2023-03-26T03:11:48.769Z,17.50
2023-03-26T03:13:57.689Z,16.67
2023-03-26T03:16:06.654Z,17.20
2023-03-26T03:18:14.411Z,16.77
2023-03-26T03:20:23.033Z,17.85
2023-03-26T03:22:30.209Z,17.40
2023-03-26T03:24:37.527Z,15.93
2023-03-26T03:26:46.825Z,17.58
2023-03-26T04:13:29.743Z,18.25
2023-03-26T04:15:58.076Z,17.98
2023-03-26T04:18:05.617Z,18.58
2023-03-26T04:20:16.683Z,18.27
2023-03-26T04:22:37.530Z,18.63
2023-03-26T04:24:49.833Z,19.35
2023-03-26T04:27:10.329Z,19.23
2023-03-26T04:29:25.502Z,18.92
2023-03-26T04:31:32.919Z,19.30
2023-03-26T04:33:42.624Z,19.77
2023-03-26T04:35:50.156Z,18.52
2023-03-26T04:37:58.523Z,20.30
2023-03-26T04:40:12.617Z,21.35
2023-03-26T04:42:31.369Z,20.10
2023-03-26T04:44:53.283Z,20.73
2023-03-26T04:47:01.440Z,19.70
2023-03-26T04:49:23.185Z,19.60
2023-03-26T04:51:36.038Z,19.17
2023-03-26T04:53:43.066Z,20.08
2023-03-26T04:56:09.088Z,20.45
2023-03-26T04:58:36.348Z,19.58
2023-03-26T05:00:45.956Z,19.15
2023-03-26T05:02:55.042Z,19.48
2023-03-26T05:05:03.828Z,19.48
2023-03-26T05:07:13.976Z,18.98
2023-03-26T05:09:26.637Z,19.17
2023-03-26T05:11:52.974Z,20.30
2023-03-26T05:14:01.077Z,18.88
2023-03-26T05:16:10.422Z,21.33
2023-03-26T05:18:20.927Z,27.02
2023-03-26T05:20:32.853Z,19.00
2023-03-26T05:22:41.375Z,19.50
2023-03-26T05:24:58.787Z,18.80
2023-03-26T05:27:06.275Z,18.50
2023-03-26T05:29:14.642Z,16.33
2023-03-26T05:33:37.590Z,14.32
2023-03-26T05:35:51.800Z,15.38
2023-03-26T05:37:58.835Z,15.02
2023-03-26T05:40:12.462Z,16.52
2023-03-26T05:42:28.091Z,14.68
2023-03-26T05:44:55.137Z,14.88
2023-03-26T05:47:08.717Z,14.80
2023-03-26T05:49:16.258Z,14.73
2023-03-26T05:51:24.424Z,16.35
2023-03-26T05:53:41.321Z,15.60
2023-03-26T05:56:00.381Z,15.27
2023-03-26T05:58:30.868Z,15.27
2023-03-26T06:01:03.590Z,15.63
2023-03-26T06:03:24.075Z,14.98
2023-03-26T06:05:57.376Z,14.52
2023-03-26T06:08:20.430Z,14.82
2023-03-26T06:12:38.205Z,14.90
2023-03-26T06:14:46.889Z,14.63
2023-03-26T06:17:06.413Z,15.10
2023-03-26T06:19:35.049Z,14.48
2023-03-26T06:21:50.725Z,14.70
2023-03-26T06:24:04.103Z,15.25
2023-03-26T06:26:26.846Z,15.70
2023-03-26T06:28:57.639Z,14.80
2023-03-26T06:31:27.529Z,15.45
2023-03-26T06:33:51.385Z,16.17
2023-03-26T06:36:00.085Z,16.77
2023-03-26T06:38:08.652Z,16.73
2023-03-26T06:40:16.608Z,16.20
2023-03-26T06:43:07.770Z,16.02
2023-03-26T06:45:20.225Z,15.55
2023-03-26T06:47:45.622Z,15.95
2023-03-26T06:50:19.229Z,16.88
2023-03-26T06:52:56.213Z,15.88
2023-03-26T06:55:22.186Z,15.32
2023-03-26T06:57:46.469Z,16.13
2023-03-26T07:00:12.543Z,16.02
2023-03-26T07:02:39.195Z,15.48
2023-03-26T07:05:04.284Z,15.32
2023-03-26T07:07:34.145Z,14.90
2023-03-26T07:10:13.113Z,15.88
2023-03-26T07:12:52.407Z,16.45
2023-03-26T07:15:19.353Z,15.35
2023-03-26T07:20:06.892Z,15.50
2023-03-26T07:22:21.961Z,15.10
2023-03-26T07:24:41.997Z,15.43
2023-03-26T07:27:09.910Z,15.50
2023-03-26T07:29:25.591Z,15.38
2023-03-26T07:32:12.351Z,15.07
2023-03-26T07:34:44.162Z,14.40
2023-03-26T07:37:22.731Z,14.48
2023-03-26T07:39:59.095Z,14.80
2023-03-26T07:42:37.095Z,15.63
2023-03-26T07:45:06.346Z,15.30
2023-03-26T07:47:37.772Z,16.13
2023-03-26T07:49:58.503Z,15.23
2023-03-26T07:52:26.628Z,15.60
2023-03-26T07:54:45.623Z,15.98
2023-03-26T07:57:17.041Z,16.02
2023-03-26T07:59:55.693Z,16.05
2023-03-26T08:02:39.050Z,15.88
2023-03-26T08:05:20.970Z,16.30
2023-03-26T08:07:48.170Z,16.02
2023-03-26T08:10:10.663Z,16.58
2023-03-26T08:12:40.266Z,17.02
2023-03-26T08:14:57.383Z,16.45
2023-03-26T08:17:13.013Z,17.17
2023-03-26T08:19:36.060Z,18.38
2023-03-26T08:21:48.990Z,17.63
2023-03-26T08:24:04.613Z,17.15
2023-03-26T08:26:18.447Z,19.48
2023-03-26T08:28:36.328Z,18.63
2023-03-26T08:30:45.592Z,17.35
2023-03-26T08:32:58.723Z,19.60
2023-03-26T08:35:06.689Z,18.98
2023-03-26T08:37:13.664Z,18.17
2023-03-26T08:39:21.047Z,17.92
2023-03-26T08:42:04.062Z,18.55
2023-03-26T08:44:51.850Z,17.67
2023-03-26T08:47:42.052Z,17.98
2023-03-26T08:50:18.510Z,16.55
2023-03-26T08:52:59.743Z,18.00
2023-03-26T08:55:45.573Z,18.08
2023-03-26T08:58:24.153Z,18.17
2023-03-26T09:00:57.009Z,17.90
2023-03-26T09:03:23.303Z,17.48
2023-03-26T09:06:08.680Z,18.50
2023-03-26T09:08:54.767Z,17.85
2023-03-26T09:11:45.995Z,18.25
2023-03-26T09:14:32.031Z,18.80
2023-03-26T09:17:06.247Z,20.60
2023-03-26T09:19:47.888Z,18.92
2023-03-26T09:22:18.939Z,19.25
2023-03-26T09:24:58.164Z,18.42
2023-03-26T09:27:18.452Z,17.00
2023-03-26T09:29:58.811Z,17.55
2023-03-26T09:32:49.986Z,16.52
2023-03-26T09:35:29.114Z,17.02
2023-03-26T09:37:57.586Z,16.38
2023-03-26T09:40:19.628Z,18.00
2023-03-26T09:42:35.349Z,18.25
2023-03-26T09:45:19.343Z,17.15
2023-03-26T09:47:46.221Z,17.65
2023-03-26T09:50:03.459Z,17.52
2023-03-26T09:52:38.131Z,17.35
2023-03-26T09:55:25.460Z,16.60
2023-03-26T09:57:59.276Z,15.60
2023-03-26T10:00:21.127Z,16.02
2023-03-26T10:02:48.247Z,15.65
2023-03-26T10:05:23.114Z,14.63
2023-03-26T10:07:50.881Z,14.70
2023-03-26T10:10:04.458Z,15.82
2023-03-26T10:12:18.760Z,16.08
2023-03-26T10:14:32.907Z,15.75
2023-03-26T10:16:55.557Z,14.55
2023-03-26T10:19:14.103Z,14.93
2023-03-26T10:21:28.621Z,14.18
2023-03-26T10:23:58.000Z,15.13
2023-03-26T10:26:19.881Z,14.18
2023-03-26T10:31:08.123Z,14.52
2023-03-26T10:33:26.424Z,14.50
2023-03-26T10:35:47.008Z,15.38
2023-03-26T10:38:10.226Z,15.23
2023-03-26T10:40:29.286Z,15.13
2023-03-26T10:42:51.213Z,16.40
2023-03-26T10:45:38.279Z,16.17
2023-03-26T10:48:30.864Z,15.40
2023-03-26T10:50:55.414Z,15.05
2023-03-26T10:53:05.771Z,15.80
2023-03-26T10:55:19.504Z,15.85
2023-03-26T10:57:44.305Z,15.65
2023-03-26T10:59:51.358Z,15.35
2023-03-26T11:02:07.878Z,15.90
2023-03-26T11:04:26.584Z,15.32
2023-03-26T11:06:42.434Z,16.35
2023-03-26T11:08:57.693Z,16.33
2023-03-26T11:11:16.704Z,16.30
2023-03-26T11:13:38.170Z,16.92
2023-03-26T11:15:49.605Z,17.30
2023-03-26T11:18:09.696Z,16.75
2023-03-26T11:20:23.318Z,16.58
2023-03-26T11:22:38.894Z,16.55
2023-03-26T11:25:29.341Z,17.38
2023-03-26T11:27:47.842Z,16.77
2023-03-26T11:30:07.058Z,16.58
2023-03-26T11:32:16.754Z,17.50
2023-03-26T11:34:30.631Z,17.95
2023-03-26T11:36:42.574Z,17.73
2023-03-26T11:38:52.420Z,17.05
2023-03-26T11:41:07.540Z,17.52
2023-03-26T11:43:43.493Z,17.80
2023-03-26T11:45:54.831Z,18.40
2023-03-26T11:48:09.243Z,20.45
2023-03-26T11:50:23.693Z,20.65
2023-03-26T11:52:32.602Z,19.48
2023-03-26T11:54:39.989Z,19.85
2023-03-26T11:57:05.089Z,19.70
2023-03-26T11:59:18.781Z,18.90
2023-03-26T12:01:31.429Z,20.70
2023-03-26T12:03:39.223Z,21.40
2023-03-26T12:05:52.647Z,20.13
2023-03-26T12:08:01.221Z,20.58
2023-03-26T12:10:19.026Z,20.38
2023-03-26T12:12:30.115Z,20.30
2023-03-26T12:14:39.036Z,20.88
2023-03-26T12:17:01.654Z,20.75
2023-03-26T12:19:21.917Z,20.88
2023-03-26T12:21:29.564Z,21.08
2023-03-26T12:23:45.291Z,21.10
2023-03-26T12:26:15.367Z,20.42
2023-03-26T12:28:23.616Z,20.45
2023-03-26T12:30:32.116Z,20.45
2023-03-26T12:32:46.951Z,20.75
2023-03-26T12:34:54.632Z,22.13
2023-03-26T12:37:02.786Z,22.20
2023-03-26T12:40:09.271Z,21.25
2023-03-26T12:44:49.934Z,22.00
2023-03-26T12:44:51.450Z,22.95
2023-03-26T12:47:56.987Z,22.70
2023-03-26T12:49:43.266Z,22.33
2023-03-26T12:51:53.468Z,23.17
2023-03-26T12:54:19.288Z,22.08
2023-03-26T12:56:39.457Z,22.77
2023-03-26T12:59:05.196Z,23.25
2023-03-26T13:01:20.945Z,23.00
2023-03-26T13:03:42.938Z,23.15
2023-03-26T13:08:24.334Z,21.63
2023-03-26T13:10:53.046Z,22.88
2023-03-26T13:13:12.658Z,22.40
2023-03-26T13:15:25.676Z,22.00
2023-03-26T13:17:39.088Z,21.23
2023-03-26T13:19:55.506Z,23.02
2023-03-26T13:22:20.403Z,21.95
2023-03-26T13:24:41.571Z,22.90
2023-03-26T13:27:01.745Z,21.67
2023-03-26T13:29:16.967Z,21.77
2023-03-26T13:31:28.400Z,21.40
2023-03-26T13:33:43.669Z,20.45
2023-03-26T13:36:10.268Z,21.42
2023-03-26T13:38:32.952Z,20.10
2023-03-26T13:40:50.222Z,21.63
2023-03-26T13:43:18.243Z,20.98
2023-03-26T13:45:39.709Z,21.50
2023-03-26T13:47:49.987Z,20.73
2023-03-26T13:50:02.824Z,22.75
2023-03-26T13:52:15.281Z,21.55
2023-03-26T13:54:30.924Z,22.77
2023-03-26T13:56:44.792Z,23.08
2023-03-26T13:58:55.361Z,24.27
2023-03-26T14:01:08.333Z,24.58
2023-03-26T14:03:23.862Z,24.38
2023-03-26T14:05:38.352Z,24.65
2023-03-26T14:07:49.600Z,24.00
2023-03-26T14:10:01.991Z,23.58
2023-03-26T14:12:31.749Z,24.27
2023-03-26T14:14:44.524Z,22.88
2023-03-26T14:16:54.201Z,23.83
2023-03-26T14:19:14.902Z,24.38
2023-03-26T14:21:55.979Z,24.17
2023-03-26T14:24:48.525Z,22.93
2023-03-26T14:27:14.184Z,24.10
2023-03-26T14:29:56.788Z,23.73
2023-03-26T14:32:32.203Z,25.65
2023-03-26T14:34:54.525Z,24.42
2023-03-26T14:37:27.474Z,25.92
2023-03-26T14:39:53.268Z,24.88
2023-03-26T14:42:09.779Z,26.00
2023-03-26T14:44:48.340Z,26.20
2023-03-26T14:47:16.808Z,25.27
2023-03-26T14:49:57.246Z,25.45
2023-03-26T16:14:18.564Z,25.42
2023-03-26T19:29:21.389Z,29.00
2023-03-26T19:33:13.200Z,27.40
2023-03-26T19:39:39.888Z,29.73
